sensor_id;sensor_type;location;lat;lon;timestamp;noise_LAeq;noise_LA_min;noise_LA_max;noise_LA01;noise_LA95
69615;Laerm;56821;52.486;4.680;2022-10-31T00:00:00;38.69;36.62;41.76;;
69615;Laerm;56821;52.486;4.680;2022-10-31T00:00:11;38.79;36.20;41.47;;
69615;Laerm;56821;52.486;4.680;2022-10-31T00:00:21;38.03;35.12;40.36;;
69615;Laerm;56821;52.486;4.680;2022-10-31T00:00:31;37.63;34.63;40.00;;
69615;Laerm;56821;52.486;4.680;2022-10-31T00:00:42;37.41;34.84;40.13;;
69615;Laerm;56821;52.486;4.680;2022-10-31T00:00:52;37.91;35.86;40.09;;
69615;Laerm;56821;52.486;4.680;2022-10-31T00:01:08;38.08;35.19;40.27;;
69615;Laerm;56821;52.486;4.680;2022-10-31T00:01:20;39.31;37.10;41.69;;
69615;Laerm;56821;52.486;4.680;2022-10-31T00:01:35;39.92;37.50;42.53;;
69615;Laerm;56821;52.486;4.680;2022-10-31T00:01:45;39.15;36.83;41.16;;
69615;Laerm;56821;52.486;4.680;2022-10-31T00:01:55;38.40;36.13;40.67;;
69615;Laerm;56821;52.486;4.680;2022-10-31T00:02:06;37.90;35.77;40.33;;
69615;Laerm;56821;52.486;4.680;2022-10-31T00:02:16;38.26;34.50;40.85;;
69615;Laerm;56821;52.486;4.680;2022-10-31T00:02:26;38.53;35.99;40.75;;
69615;Laerm;56821;52.486;4.680;2022-10-31T00:02:36;39.13;36.49;41.63;;
69615;Laerm;56821;52.486;4.680;2022-10-31T00:02:47;40.39;37.97;42.21;;
69615;Laerm;56821;52.486;4.680;2022-10-31T00:02:57;41.07;37.44;43.46;;
69615;Laerm;56821;52.486;4.680;2022-10-31T00:03:07;40.41;36.97;42.60;;
69615;Laerm;56821;52.486;4.680;2022-10-31T00:03:17;39.18;37.13;40.83;;
69615;Laerm;56821;52.486;4.680;2022-10-31T00:03:27;39.30;36.61;42.60;;
69615;Laerm;56821;52.486;4.680;2022-10-31T00:03:38;41.37;38.58;45.02;;
69615;Laerm;56821;52.486;4.680;2022-10-31T00:03:48;39.52;36.90;42.33;;
69615;Laerm;56821;52.486;4.680;2022-10-31T00:03:58;38.10;35.39;40.06;;
69615;Laerm;56821;52.486;4.680;2022-10-31T00:04:08;38.52;35.99;40.91;;
69615;Laerm;56821;52.486;4.680;2022-10-31T00:04:19;39.68;36.42;42.20;;
69615;Laerm;56821;52.486;4.680;2022-10-31T00:04:29;40.66;37.96;44.33;;
69615;Laerm;56821;52.486;4.680;2022-10-31T00:04:39;38.79;36.70;41.11;;
69615;Laerm;56821;52.486;4.680;2022-10-31T00:04:50;40.09;37.54;42.57;;
69615;Laerm;56821;52.486;4.680;2022-10-31T00:05:00;39.97;37.31;42.42;;
69615;Laerm;56821;52.486;4.680;2022-10-31T00:05:10;39.76;36.84;44.37;;
69615;Laerm;56821;52.486;4.680;2022-10-31T00:05:20;42.35;37.13;48.09;;
69615;Laerm;56821;52.486;4.680;2022-10-31T00:05:30;44.51;39.20;51.96;;
69615;Laerm;56821;52.486;4.680;2022-10-31T00:05:45;38.70;35.68;44.18;;
69615;Laerm;56821;52.486;4.680;2022-10-31T00:05:55;37.76;35.10;40.64;;
69615;Laerm;56821;52.486;4.680;2022-10-31T00:06:05;38.51;35.24;41.27;;
69615;Laerm;56821;52.486;4.680;2022-10-31T00:06:16;37.29;35.21;39.43;;
69615;Laerm;56821;52.486;4.680;2022-10-31T00:06:29;37.79;35.65;40.17;;
69615;Laerm;56821;52.486;4.680;2022-10-31T00:06:39;37.70;35.63;40.51;;
69615;Laerm;56821;52.486;4.680;2022-10-31T00:06:50;37.14;35.10;38.81;;
69615;Laerm;56821;52.486;4.680;2022-10-31T00:07:00;39.14;35.76;42.24;;
69615;Laerm;56821;52.486;4.680;2022-10-31T00:07:10;42.34;37.61;44.64;;
69615;Laerm;56821;52.486;4.680;2022-10-31T00:07:20;39.44;37.07;41.20;;
69615;Laerm;56821;52.486;4.680;2022-10-31T00:07:30;38.45;36.72;40.08;;
69615;Laerm;56821;52.486;4.680;2022-10-31T00:07:41;38.62;36.32;42.46;;
69615;Laerm;56821;52.486;4.680;2022-10-31T00:07:51;38.41;35.64;41.96;;
69615;Laerm;56821;52.486;4.680;2022-10-31T00:08:02;38.63;36.86;40.53;;
69615;Laerm;56821;52.486;4.680;2022-10-31T00:08:12;38.34;35.75;42.08;;
69615;Laerm;56821;52.486;4.680;2022-10-31T00:08:23;40.01;36.97;44.80;;
69615;Laerm;56821;52.486;4.680;2022-10-31T00:08:33;38.76;36.07;41.11;;
69615;Laerm;56821;52.486;4.680;2022-10-31T00:08:45;38.67;36.00;42.96;;
69615;Laerm;56821;52.486;4.680;2022-10-31T00:08:56;38.07;36.28;40.35;;
69615;Laerm;56821;52.486;4.680;2022-10-31T00:09:09;38.42;35.91;41.23;;
69615;Laerm;56821;52.486;4.680;2022-10-31T00:09:19;37.59;35.51;39.39;;
69615;Laerm;56821;52.486;4.680;2022-10-31T00:09:29;37.58;35.46;42.80;;
69615;Laerm;56821;52.486;4.680;2022-10-31T00:09:39;37.78;35.78;39.70;;
69615;Laerm;56821;52.486;4.680;2022-10-31T00:09:49;38.18;36.49;39.85;;
69615;Laerm;56821;52.486;4.680;2022-10-31T00:10:00;38.53;36.70;40.84;;
69615;Laerm;56821;52.486;4.680;2022-10-31T00:10:10;38.87;37.13;41.41;;
69615;Laerm;56821;52.486;4.680;2022-10-31T00:10:20;38.42;36.36;40.20;;
69615;Laerm;56821;52.486;4.680;2022-10-31T00:10:30;40.19;37.33;43.50;;
69615;Laerm;56821;52.486;4.680;2022-10-31T00:10:41;41.63;38.38;43.89;;
69615;Laerm;56821;52.486;4.680;2022-10-31T00:10:51;40.54;37.82;43.07;;
69615;Laerm;56821;52.486;4.680;2022-10-31T00:11:02;38.98;36.72;41.78;;
69615;Laerm;56821;52.486;4.680;2022-10-31T00:11:12;38.54;36.68;40.73;;
69615;Laerm;56821;52.486;4.680;2022-10-31T00:11:22;37.48;35.21;39.66;;
69615;Laerm;56821;52.486;4.680;2022-10-31T00:11:33;36.10;33.43;38.58;;
69615;Laerm;56821;52.486;4.680;2022-10-31T00:11:43;35.58;33.53;37.52;;
69615;Laerm;56821;52.486;4.680;2022-10-31T00:11:53;35.84;33.79;38.82;;
69615;Laerm;56821;52.486;4.680;2022-10-31T00:12:03;36.74;33.91;40.67;;
69615;Laerm;56821;52.486;4.680;2022-10-31T00:12:14;38.00;35.76;40.79;;
69615;Laerm;56821;52.486;4.680;2022-10-31T00:12:24;37.61;35.08;40.32;;
69615;Laerm;56821;52.486;4.680;2022-10-31T00:12:34;37.81;35.45;40.27;;
69615;Laerm;56821;52.486;4.680;2022-10-31T00:12:44;37.26;35.42;38.89;;
69615;Laerm;56821;52.486;4.680;2022-10-31T00:12:54;37.56;35.55;40.26;;
69615;Laerm;56821;52.486;4.680;2022-10-31T00:13:05;38.13;35.72;40.29;;
69615;Laerm;56821;52.486;4.680;2022-10-31T00:13:15;38.33;35.59;40.57;;
69615;Laerm;56821;52.486;4.680;2022-10-31T00:13:25;38.20;36.07;40.38;;
69615;Laerm;56821;52.486;4.680;2022-10-31T00:13:36;36.63;34.13;38.58;;
69615;Laerm;56821;52.486;4.680;2022-10-31T00:13:46;36.33;33.98;38.49;;
69615;Laerm;56821;52.486;4.680;2022-10-31T00:13:59;37.17;35.44;39.40;;
69615;Laerm;56821;52.486;4.680;2022-10-31T00:14:09;37.54;34.37;44.58;;
69615;Laerm;56821;52.486;4.680;2022-10-31T00:14:19;37.77;35.35;40.61;;
69615;Laerm;56821;52.486;4.680;2022-10-31T00:14:29;37.44;34.59;40.89;;
69615;Laerm;56821;52.486;4.680;2022-10-31T00:14:40;36.82;34.76;39.31;;
69615;Laerm;56821;52.486;4.680;2022-10-31T00:14:50;36.95;35.21;38.93;;
69615;Laerm;56821;52.486;4.680;2022-10-31T00:15:00;37.75;35.16;40.93;;
69615;Laerm;56821;52.486;4.680;2022-10-31T00:15:10;38.63;35.70;41.48;;
69615;Laerm;56821;52.486;4.680;2022-10-31T00:15:20;39.65;36.89;42.70;;
69615;Laerm;56821;52.486;4.680;2022-10-31T00:15:32;39.07;36.53;42.18;;
69615;Laerm;56821;52.486;4.680;2022-10-31T00:15:42;39.26;37.27;41.05;;
69615;Laerm;56821;52.486;4.680;2022-10-31T00:15:52;39.13;37.16;40.92;;
69615;Laerm;56821;52.486;4.680;2022-10-31T00:16:03;39.21;36.33;41.25;;
69615;Laerm;56821;52.486;4.680;2022-10-31T00:16:14;40.14;37.77;43.18;;
69615;Laerm;56821;52.486;4.680;2022-10-31T00:16:25;40.91;38.29;43.39;;
69615;Laerm;56821;52.486;4.680;2022-10-31T00:16:35;39.41;37.35;42.13;;
69615;Laerm;56821;52.486;4.680;2022-10-31T00:16:45;40.15;37.27;42.70;;
69615;Laerm;56821;52.486;4.680;2022-10-31T00:16:55;40.77;38.15;45.05;;
69615;Laerm;56821;52.486;4.680;2022-10-31T00:17:06;40.48;37.60;43.27;;
69615;Laerm;56821;52.486;4.680;2022-10-31T00:17:16;38.88;36.56;41.01;;
69615;Laerm;56821;52.486;4.680;2022-10-31T00:17:26;39.12;36.12;41.60;;
69615;Laerm;56821;52.486;4.680;2022-10-31T00:17:36;38.90;36.26;42.96;;
69615;Laerm;56821;52.486;4.680;2022-10-31T00:17:46;38.04;35.83;40.12;;
69615;Laerm;56821;52.486;4.680;2022-10-31T00:17:58;38.45;36.52;40.93;;
69615;Laerm;56821;52.486;4.680;2022-10-31T00:18:08;38.55;35.80;41.26;;
69615;Laerm;56821;52.486;4.680;2022-10-31T00:18:18;40.40;37.91;42.88;;
69615;Laerm;56821;52.486;4.680;2022-10-31T00:18:29;39.73;37.44;42.07;;
69615;Laerm;56821;52.486;4.680;2022-10-31T00:18:39;39.64;37.44;42.31;;
69615;Laerm;56821;52.486;4.680;2022-10-31T00:18:49;41.79;37.92;50.06;;
69615;Laerm;56821;52.486;4.680;2022-10-31T00:19:02;43.70;37.87;49.27;;
69615;Laerm;56821;52.486;4.680;2022-10-31T00:19:12;42.83;38.75;47.64;;
69615;Laerm;56821;52.486;4.680;2022-10-31T00:19:22;39.16;36.44;42.43;;
69615;Laerm;56821;52.486;4.680;2022-10-31T00:19:33;38.59;36.55;40.47;;
69615;Laerm;56821;52.486;4.680;2022-10-31T00:19:43;39.86;37.79;41.32;;
69615;Laerm;56821;52.486;4.680;2022-10-31T00:19:53;38.76;36.89;41.18;;
69615;Laerm;56821;52.486;4.680;2022-10-31T00:20:03;40.28;38.64;41.99;;
69615;Laerm;56821;52.486;4.680;2022-10-31T00:20:14;40.09;37.27;42.96;;
69615;Laerm;56821;52.486;4.680;2022-10-31T00:20:24;39.88;37.53;42.77;;
69615;Laerm;56821;52.486;4.680;2022-10-31T00:20:34;39.62;37.24;41.91;;
69615;Laerm;56821;52.486;4.680;2022-10-31T00:20:44;41.41;37.91;45.17;;
69615;Laerm;56821;52.486;4.680;2022-10-31T00:21:01;45.01;38.95;54.41;;
69615;Laerm;56821;52.486;4.680;2022-10-31T00:21:11;41.79;37.95;45.70;;
69615;Laerm;56821;52.486;4.680;2022-10-31T00:21:22;38.50;35.80;41.34;;
69615;Laerm;56821;52.486;4.680;2022-10-31T00:21:32;39.09;36.30;42.12;;
69615;Laerm;56821;52.486;4.680;2022-10-31T00:21:43;40.00;36.69;42.78;;
69615;Laerm;56821;52.486;4.680;2022-10-31T00:21:53;40.76;36.79;43.55;;
69615;Laerm;56821;52.486;4.680;2022-10-31T00:22:03;42.79;39.82;45.08;;
69615;Laerm;56821;52.486;4.680;2022-10-31T00:22:13;40.99;37.50;44.95;;
69615;Laerm;56821;52.486;4.680;2022-10-31T00:22:24;41.12;38.41;44.48;;
69615;Laerm;56821;52.486;4.680;2022-10-31T00:22:34;41.61;38.01;44.22;;
69615;Laerm;56821;52.486;4.680;2022-10-31T00:22:45;41.44;37.24;46.33;;
69615;Laerm;56821;52.486;4.680;2022-10-31T00:22:58;38.87;36.84;41.24;;
69615;Laerm;56821;52.486;4.680;2022-10-31T00:23:09;38.63;36.03;41.33;;
69615;Laerm;56821;52.486;4.680;2022-10-31T00:23:20;36.79;34.25;38.96;;
69615;Laerm;56821;52.486;4.680;2022-10-31T00:23:31;37.09;34.74;39.08;;
69615;Laerm;56821;52.486;4.680;2022-10-31T00:23:41;39.23;36.09;42.62;;
69615;Laerm;56821;52.486;4.680;2022-10-31T00:23:51;38.15;35.65;40.63;;
69615;Laerm;56821;52.486;4.680;2022-10-31T00:24:02;37.03;34.74;38.80;;
69615;Laerm;56821;52.486;4.680;2022-10-31T00:24:12;37.44;34.85;39.55;;
69615;Laerm;56821;52.486;4.680;2022-10-31T00:24:22;37.42;34.78;39.61;;
69615;Laerm;56821;52.486;4.680;2022-10-31T00:24:33;36.60;34.68;39.42;;
69615;Laerm;56821;52.486;4.680;2022-10-31T00:24:43;36.78;34.22;39.21;;
69615;Laerm;56821;52.486;4.680;2022-10-31T00:24:53;36.37;33.63;38.68;;
69615;Laerm;56821;52.486;4.680;2022-10-31T00:25:03;36.78;34.31;38.78;;
69615;Laerm;56821;52.486;4.680;2022-10-31T00:25:14;36.38;33.32;38.55;;
69615;Laerm;56821;52.486;4.680;2022-10-31T00:25:24;35.25;33.32;37.82;;
69615;Laerm;56821;52.486;4.680;2022-10-31T00:25:35;36.75;33.34;42.33;;
69615;Laerm;56821;52.486;4.680;2022-10-31T00:25:46;39.49;34.03;49.12;;
69615;Laerm;56821;52.486;4.680;2022-10-31T00:26:02;36.22;34.00;39.44;;
69615;Laerm;56821;52.486;4.680;2022-10-31T00:26:13;41.79;34.33;49.79;;
69615;Laerm;56821;52.486;4.680;2022-10-31T00:26:23;40.29;36.02;45.97;;
69615;Laerm;56821;52.486;4.680;2022-10-31T00:26:33;38.27;36.36;41.60;;
69615;Laerm;56821;52.486;4.680;2022-10-31T00:26:44;40.38;37.72;44.91;;
69615;Laerm;56821;52.486;4.680;2022-10-31T00:26:54;38.85;36.92;40.99;;
69615;Laerm;56821;52.486;4.680;2022-10-31T00:27:04;37.59;34.59;39.81;;
69615;Laerm;56821;52.486;4.680;2022-10-31T00:27:14;37.52;35.25;40.67;;
69615;Laerm;56821;52.486;4.680;2022-10-31T00:27:24;37.68;35.59;41.11;;
69615;Laerm;56821;52.486;4.680;2022-10-31T00:27:35;37.52;35.62;40.24;;
69615;Laerm;56821;52.486;4.680;2022-10-31T00:27:45;38.53;35.09;41.51;;
69615;Laerm;56821;52.486;4.680;2022-10-31T00:27:55;39.11;37.14;41.40;;
69615;Laerm;56821;52.486;4.680;2022-10-31T00:28:06;40.59;36.99;58.32;;
69615;Laerm;56821;52.486;4.680;2022-10-31T00:28:16;39.60;37.61;42.04;;
69615;Laerm;56821;52.486;4.680;2022-10-31T00:28:26;39.61;37.07;42.16;;
69615;Laerm;56821;52.486;4.680;2022-10-31T00:28:37;39.10;36.68;41.05;;
69615;Laerm;56821;52.486;4.680;2022-10-31T00:28:47;37.74;35.42;41.16;;
69615;Laerm;56821;52.486;4.680;2022-10-31T00:28:58;37.44;35.11;40.58;;
69615;Laerm;56821;52.486;4.680;2022-10-31T00:29:08;36.10;33.55;39.58;;
69615;Laerm;56821;52.486;4.680;2022-10-31T00:29:18;36.07;33.85;38.22;;
69615;Laerm;56821;52.486;4.680;2022-10-31T00:29:28;38.05;35.12;40.58;;
69615;Laerm;56821;52.486;4.680;2022-10-31T00:29:39;38.80;35.23;41.11;;
69615;Laerm;56821;52.486;4.680;2022-10-31T00:29:49;36.82;35.15;38.36;;
69615;Laerm;56821;52.486;4.680;2022-10-31T00:29:59;36.35;33.82;38.72;;
69615;Laerm;56821;52.486;4.680;2022-10-31T00:30:09;38.01;35.28;40.33;;
69615;Laerm;56821;52.486;4.680;2022-10-31T00:30:19;38.40;35.36;40.33;;
69615;Laerm;56821;52.486;4.680;2022-10-31T00:30:30;37.09;34.96;39.06;;
69615;Laerm;56821;52.486;4.680;2022-10-31T00:30:40;36.08;34.37;38.25;;
69615;Laerm;56821;52.486;4.680;2022-10-31T00:30:50;36.85;34.65;38.85;;
69615;Laerm;56821;52.486;4.680;2022-10-31T00:31:01;36.25;34.05;39.43;;
69615;Laerm;56821;52.486;4.680;2022-10-31T00:31:12;35.82;33.94;37.43;;
69615;Laerm;56821;52.486;4.680;2022-10-31T00:31:22;36.18;33.97;38.93;;
69615;Laerm;56821;52.486;4.680;2022-10-31T00:31:33;36.43;34.65;39.28;;
69615;Laerm;56821;52.486;4.680;2022-10-31T00:31:43;36.67;34.95;38.80;;
69615;Laerm;56821;52.486;4.680;2022-10-31T00:31:53;37.81;35.83;39.40;;
69615;Laerm;56821;52.486;4.680;2022-10-31T00:32:04;37.76;35.54;40.66;;
69615;Laerm;56821;52.486;4.680;2022-10-31T00:32:14;37.42;35.62;39.35;;
69615;Laerm;56821;52.486;4.680;2022-10-31T00:32:24;37.08;34.91;40.22;;
69615;Laerm;56821;52.486;4.680;2022-10-31T00:32:34;39.52;37.10;41.64;;
69615;Laerm;56821;52.486;4.680;2022-10-31T00:32:44;38.75;36.56;41.38;;
69615;Laerm;56821;52.486;4.680;2022-10-31T00:32:55;38.61;36.02;40.29;;
69615;Laerm;56821;52.486;4.680;2022-10-31T00:33:05;37.84;35.70;40.93;;
69615;Laerm;56821;52.486;4.680;2022-10-31T00:33:15;37.49;35.43;39.68;;
69615;Laerm;56821;52.486;4.680;2022-10-31T00:33:25;37.06;34.55;39.64;;
69615;Laerm;56821;52.486;4.680;2022-10-31T00:33:36;38.18;36.14;40.64;;
69615;Laerm;56821;52.486;4.680;2022-10-31T00:33:47;37.08;35.00;38.97;;
69615;Laerm;56821;52.486;4.680;2022-10-31T00:33:57;37.61;34.98;40.42;;
69615;Laerm;56821;52.486;4.680;2022-10-31T00:34:08;38.46;35.84;42.79;;
69615;Laerm;56821;52.486;4.680;2022-10-31T00:34:18;39.13;35.76;44.26;;
69615;Laerm;56821;52.486;4.680;2022-10-31T00:34:28;39.32;37.69;41.04;;
69615;Laerm;56821;52.486;4.680;2022-10-31T00:34:38;37.46;34.94;41.11;;
69615;Laerm;56821;52.486;4.680;2022-10-31T00:34:48;36.93;34.61;39.11;;
69615;Laerm;56821;52.486;4.680;2022-10-31T00:34:58;36.64;33.58;38.85;;
69615;Laerm;56821;52.486;4.680;2022-10-31T00:35:09;37.79;35.43;41.27;;
69615;Laerm;56821;52.486;4.680;2022-10-31T00:35:19;38.84;36.47;41.68;;
69615;Laerm;56821;52.486;4.680;2022-10-31T00:35:29;37.54;34.66;40.57;;
69615;Laerm;56821;52.486;4.680;2022-10-31T00:35:39;39.36;35.67;42.99;;
69615;Laerm;56821;52.486;4.680;2022-10-31T00:35:50;41.70;37.59;46.92;;
69615;Laerm;56821;52.486;4.680;2022-10-31T00:36:00;40.84;36.49;45.85;;
69615;Laerm;56821;52.486;4.680;2022-10-31T00:36:11;39.47;35.97;43.12;;
69615;Laerm;56821;52.486;4.680;2022-10-31T00:36:22;37.55;35.28;42.90;;
69615;Laerm;56821;52.486;4.680;2022-10-31T00:36:32;39.51;34.93;43.54;;
69615;Laerm;56821;52.486;4.680;2022-10-31T00:36:42;40.40;37.28;44.04;;
69615;Laerm;56821;52.486;4.680;2022-10-31T00:36:52;40.17;37.80;44.44;;
69615;Laerm;56821;52.486;4.680;2022-10-31T00:37:03;41.34;38.80;45.75;;
69615;Laerm;56821;52.486;4.680;2022-10-31T00:37:13;39.88;38.12;42.44;;
69615;Laerm;56821;52.486;4.680;2022-10-31T00:37:23;39.02;36.39;41.31;;
69615;Laerm;56821;52.486;4.680;2022-10-31T00:37:33;37.42;35.02;39.90;;
69615;Laerm;56821;52.486;4.680;2022-10-31T00:37:43;40.69;36.63;43.02;;
69615;Laerm;56821;52.486;4.680;2022-10-31T00:37:54;39.56;36.69;42.82;;
69615;Laerm;56821;52.486;4.680;2022-10-31T00:38:04;40.72;36.41;52.14;;
69615;Laerm;56821;52.486;4.680;2022-10-31T00:38:14;38.33;36.06;41.03;;
69615;Laerm;56821;52.486;4.680;2022-10-31T00:38:24;37.52;35.05;40.12;;
69615;Laerm;56821;52.486;4.680;2022-10-31T00:38:35;36.92;34.52;38.96;;
69615;Laerm;56821;52.486;4.680;2022-10-31T00:38:45;37.08;35.09;38.72;;
69615;Laerm;56821;52.486;4.680;2022-10-31T00:38:57;36.65;34.55;38.73;;
69615;Laerm;56821;52.486;4.680;2022-10-31T00:39:07;37.06;33.93;39.38;;
69615;Laerm;56821;52.486;4.680;2022-10-31T00:39:18;37.01;34.18;39.79;;
69615;Laerm;56821;52.486;4.680;2022-10-31T00:39:28;36.24;34.18;38.05;;
69615;Laerm;56821;52.486;4.680;2022-10-31T00:39:38;37.00;35.03;39.42;;
69615;Laerm;56821;52.486;4.680;2022-10-31T00:39:48;37.18;34.65;38.81;;
69615;Laerm;56821;52.486;4.680;2022-10-31T00:39:59;38.48;35.69;41.81;;
69615;Laerm;56821;52.486;4.680;2022-10-31T00:40:10;38.56;36.56;40.29;;
69615;Laerm;56821;52.486;4.680;2022-10-31T00:40:20;37.86;35.26;40.70;;
69615;Laerm;56821;52.486;4.680;2022-10-31T00:40:30;37.69;34.88;40.85;;
69615;Laerm;56821;52.486;4.680;2022-10-31T00:40:40;37.69;35.90;39.83;;
69615;Laerm;56821;52.486;4.680;2022-10-31T00:40:51;36.90;34.74;39.89;;
69615;Laerm;56821;52.486;4.680;2022-10-31T00:41:01;37.57;34.83;40.25;;
69615;Laerm;56821;52.486;4.680;2022-10-31T00:41:12;38.29;36.26;40.52;;
69615;Laerm;56821;52.486;4.680;2022-10-31T00:41:22;37.88;35.88;40.04;;
69615;Laerm;56821;52.486;4.680;2022-10-31T00:41:33;38.92;36.44;43.20;;
69615;Laerm;56821;52.486;4.680;2022-10-31T00:41:43;38.12;35.38;41.14;;
69615;Laerm;56821;52.486;4.680;2022-10-31T00:41:53;38.01;35.84;40.57;;
69615;Laerm;56821;52.486;4.680;2022-10-31T00:42:03;39.33;36.50;42.09;;
69615;Laerm;56821;52.486;4.680;2022-10-31T00:42:14;39.11;35.53;41.82;;
69615;Laerm;56821;52.486;4.680;2022-10-31T00:42:24;38.86;35.78;42.55;;
69615;Laerm;56821;52.486;4.680;2022-10-31T00:42:34;37.01;34.82;39.52;;
69615;Laerm;56821;52.486;4.680;2022-10-31T00:42:44;36.45;34.08;40.94;;
69615;Laerm;56821;52.486;4.680;2022-10-31T00:42:54;36.87;34.69;39.40;;
69615;Laerm;56821;52.486;4.680;2022-10-31T00:43:05;36.51;34.44;39.80;;
69615;Laerm;56821;52.486;4.680;2022-10-31T00:43:15;35.96;33.63;37.74;;
69615;Laerm;56821;52.486;4.680;2022-10-31T00:43:25;36.07;33.79;38.89;;
69615;Laerm;56821;52.486;4.680;2022-10-31T00:43:35;42.91;36.42;46.84;;
69615;Laerm;56821;52.486;4.680;2022-10-31T00:43:45;38.74;36.27;43.41;;
69615;Laerm;56821;52.486;4.680;2022-10-31T00:43:56;39.26;36.73;41.63;;
69615;Laerm;56821;52.486;4.680;2022-10-31T00:44:06;42.50;37.82;45.67;;
69615;Laerm;56821;52.486;4.680;2022-10-31T00:44:16;39.46;35.77;42.44;;
69615;Laerm;56821;52.486;4.680;2022-10-31T00:44:26;37.79;34.20;39.76;;
69615;Laerm;56821;52.486;4.680;2022-10-31T00:44:36;38.22;35.19;41.07;;
69615;Laerm;56821;52.486;4.680;2022-10-31T00:44:47;37.99;35.66;40.21;;
69615;Laerm;56821;52.486;4.680;2022-10-31T00:44:57;37.70;35.30;39.94;;
69615;Laerm;56821;52.486;4.680;2022-10-31T00:45:08;37.78;35.53;39.87;;
69615;Laerm;56821;52.486;4.680;2022-10-31T00:45:18;37.41;35.14;39.68;;
69615;Laerm;56821;52.486;4.680;2022-10-31T00:45:29;36.75;33.94;39.16;;
69615;Laerm;56821;52.486;4.680;2022-10-31T00:45:39;37.78;34.63;41.38;;
69615;Laerm;56821;52.486;4.680;2022-10-31T00:45:50;40.62;36.02;43.60;;
69615;Laerm;56821;52.486;4.680;2022-10-31T00:46:00;39.22;35.54;42.13;;
69615;Laerm;56821;52.486;4.680;2022-10-31T00:46:11;37.99;35.97;40.71;;
69615;Laerm;56821;52.486;4.680;2022-10-31T00:46:21;40.30;37.96;41.99;;
69615;Laerm;56821;52.486;4.680;2022-10-31T00:46:31;38.97;36.07;42.99;;
69615;Laerm;56821;52.486;4.680;2022-10-31T00:46:41;39.46;37.69;41.47;;
69615;Laerm;56821;52.486;4.680;2022-10-31T00:46:52;38.73;36.54;41.30;;
69615;Laerm;56821;52.486;4.680;2022-10-31T00:47:02;37.14;35.20;38.83;;
69615;Laerm;56821;52.486;4.680;2022-10-31T00:47:12;37.45;35.39;39.71;;
69615;Laerm;56821;52.486;4.680;2022-10-31T00:47:22;37.40;35.45;38.91;;
69615;Laerm;56821;52.486;4.680;2022-10-31T00:47:32;37.15;34.61;39.49;;
69615;Laerm;56821;52.486;4.680;2022-10-31T00:47:43;37.60;35.54;39.28;;
69615;Laerm;56821;52.486;4.680;2022-10-31T00:47:53;39.22;36.28;42.71;;
69615;Laerm;56821;52.486;4.680;2022-10-31T00:48:03;39.87;36.93;41.47;;
69615;Laerm;56821;52.486;4.680;2022-10-31T00:48:14;38.93;36.00;40.89;;
69615;Laerm;56821;52.486;4.680;2022-10-31T00:48:24;40.39;37.36;43.79;;
69615;Laerm;56821;52.486;4.680;2022-10-31T00:48:35;37.38;34.56;41.58;;
69615;Laerm;56821;52.486;4.680;2022-10-31T00:48:45;37.32;34.90;40.19;;
69615;Laerm;56821;52.486;4.680;2022-10-31T00:48:55;36.15;33.71;38.24;;
69615;Laerm;56821;52.486;4.680;2022-10-31T00:49:05;37.80;34.60;40.50;;
69615;Laerm;56821;52.486;4.680;2022-10-31T00:49:15;37.17;34.81;39.86;;
69615;Laerm;56821;52.486;4.680;2022-10-31T00:49:26;36.90;34.58;38.84;;
69615;Laerm;56821;52.486;4.680;2022-10-31T00:49:36;36.71;34.36;39.34;;
69615;Laerm;56821;52.486;4.680;2022-10-31T00:49:46;38.52;36.21;40.55;;
69615;Laerm;56821;52.486;4.680;2022-10-31T00:49:56;37.13;35.42;39.27;;
69615;Laerm;56821;52.486;4.680;2022-10-31T00:50:07;37.40;35.16;39.85;;
69615;Laerm;56821;52.486;4.680;2022-10-31T00:50:17;37.40;35.79;39.17;;
69615;Laerm;56821;52.486;4.680;2022-10-31T00:50:27;37.67;35.36;40.75;;
69615;Laerm;56821;52.486;4.680;2022-10-31T00:50:38;38.61;36.03;40.89;;
69615;Laerm;56821;52.486;4.680;2022-10-31T00:50:48;38.30;35.97;40.49;;
69615;Laerm;56821;52.486;4.680;2022-10-31T00:50:58;37.21;34.80;40.27;;
69615;Laerm;56821;52.486;4.680;2022-10-31T00:51:09;36.88;34.70;40.14;;
69615;Laerm;56821;52.486;4.680;2022-10-31T00:51:19;37.03;34.22;39.92;;
69615;Laerm;56821;52.486;4.680;2022-10-31T00:51:29;38.14;35.47;40.98;;
69615;Laerm;56821;52.486;4.680;2022-10-31T00:51:40;36.83;34.45;39.33;;
69615;Laerm;56821;52.486;4.680;2022-10-31T00:51:50;37.71;35.85;39.58;;
69615;Laerm;56821;52.486;4.680;2022-10-31T00:52:00;37.43;34.68;40.40;;
69615;Laerm;56821;52.486;4.680;2022-10-31T00:52:10;37.25;34.91;39.72;;
69615;Laerm;56821;52.486;4.680;2022-10-31T00:52:20;37.61;35.47;40.38;;
69615;Laerm;56821;52.486;4.680;2022-10-31T00:52:31;38.12;35.81;40.13;;
69615;Laerm;56821;52.486;4.680;2022-10-31T00:52:41;38.00;36.16;40.20;;
69615;Laerm;56821;52.486;4.680;2022-10-31T00:52:51;37.01;34.60;39.76;;
69615;Laerm;56821;52.486;4.680;2022-10-31T00:53:01;36.55;34.07;39.27;;
69615;Laerm;56821;52.486;4.680;2022-10-31T00:53:12;37.42;35.37;40.19;;
69615;Laerm;56821;52.486;4.680;2022-10-31T00:53:22;37.77;35.68;41.14;;
69615;Laerm;56821;52.486;4.680;2022-10-31T00:53:32;37.69;34.95;40.20;;
69615;Laerm;56821;52.486;4.680;2022-10-31T00:53:43;36.87;34.29;38.94;;
69615;Laerm;56821;52.486;4.680;2022-10-31T00:53:53;36.79;34.54;39.16;;
69615;Laerm;56821;52.486;4.680;2022-10-31T00:54:03;37.07;34.92;39.04;;
69615;Laerm;56821;52.486;4.680;2022-10-31T00:54:13;37.18;35.01;39.43;;
69615;Laerm;56821;52.486;4.680;2022-10-31T00:54:23;37.43;35.08;39.81;;
69615;Laerm;56821;52.486;4.680;2022-10-31T00:54:34;37.79;35.51;39.79;;
69615;Laerm;56821;52.486;4.680;2022-10-31T00:54:44;36.92;34.96;39.15;;
69615;Laerm;56821;52.486;4.680;2022-10-31T00:54:54;35.86;33.14;38.61;;
69615;Laerm;56821;52.486;4.680;2022-10-31T00:55:04;35.45;33.37;37.43;;
69615;Laerm;56821;52.486;4.680;2022-10-31T00:55:14;35.31;33.26;39.16;;
69615;Laerm;56821;52.486;4.680;2022-10-31T00:55:25;35.78;33.46;37.94;;
69615;Laerm;56821;52.486;4.680;2022-10-31T00:55:35;36.42;34.15;38.46;;
69615;Laerm;56821;52.486;4.680;2022-10-31T00:55:45;37.28;35.35;39.72;;
69615;Laerm;56821;52.486;4.680;2022-10-31T00:55:55;37.44;35.76;40.19;;
69615;Laerm;56821;52.486;4.680;2022-10-31T00:56:06;37.17;34.74;38.93;;
69615;Laerm;56821;52.486;4.680;2022-10-31T00:56:16;37.17;34.29;44.12;;
69615;Laerm;56821;52.486;4.680;2022-10-31T00:56:26;37.81;35.92;40.17;;
69615;Laerm;56821;52.486;4.680;2022-10-31T00:56:36;37.67;36.03;39.76;;
69615;Laerm;56821;52.486;4.680;2022-10-31T00:56:46;37.41;35.06;39.45;;
69615;Laerm;56821;52.486;4.680;2022-10-31T00:56:57;37.37;35.33;39.31;;
69615;Laerm;56821;52.486;4.680;2022-10-31T00:57:07;38.10;35.81;40.54;;
69615;Laerm;56821;52.486;4.680;2022-10-31T00:57:17;37.32;35.61;39.24;;
69615;Laerm;56821;52.486;4.680;2022-10-31T00:57:27;37.41;35.64;39.13;;
69615;Laerm;56821;52.486;4.680;2022-10-31T00:57:38;38.10;36.17;40.96;;
69615;Laerm;56821;52.486;4.680;2022-10-31T00:57:48;39.90;38.17;42.38;;
69615;Laerm;56821;52.486;4.680;2022-10-31T00:57:58;39.92;37.03;41.92;;
69615;Laerm;56821;52.486;4.680;2022-10-31T00:58:08;37.56;35.74;39.89;;
69615;Laerm;56821;52.486;4.680;2022-10-31T00:58:19;37.23;34.86;39.48;;